Time;durP1;ratioP1;P1;durP2;ratioP2;P2;SDS_P1;SDS_P2;PMS_P1;PMS_P2;Temp;Humidity;BMP_temperature;BMP_pressure;BME280_temperature;BME280_humidity;BME280_pressure;Samples;Min_cycle;Max_cycle;Signal;HPM_P1;HPM_P2
2021/12/30 00:01:36;;;;;;;0.53;0.23;;;10.80;99.90;;;;;;5065943;28;20299;-84
2021/12/30 00:04:03;;;;;;;0.53;0.50;;;10.90;99.90;;;;;;5063677;28;20265;-84
2021/12/30 00:06:30;;;;;;;0.27;0.27;;;10.90;99.90;;;;;;5064683;28;20184;-85
2021/12/30 00:08:56;;;;;;;0.10;0.10;;;10.90;99.90;;;;;;5065204;28;20685;-85
2021/12/30 00:11:22;;;;;;;0.43;0.30;;;10.90;99.90;;;;;;5065473;28;20189;-84
2021/12/30 00:13:48;;;;;;;0.13;0.13;;;11.00;99.90;;;;;;5066306;28;20189;-85
2021/12/30 00:16:16;;;;;;;0.97;0.97;;;11.10;99.90;;;;;;5065617;28;20188;-85
2021/12/30 00:18:43;;;;;;;0.13;0.13;;;11.20;99.90;;;;;;5066083;28;20207;-85
2021/12/30 00:21:09;;;;;;;0.27;0.27;;;11.20;99.90;;;;;;5063383;28;20189;-84
2021/12/30 00:23:35;;;;;;;0.60;0.60;;;11.20;99.90;;;;;;5065711;28;20210;-84
2021/12/30 00:26:00;;;;;;;1.37;0.43;;;11.20;99.90;;;;;;5066691;28;20195;-85
2021/12/30 00:28:28;;;;;;;0.30;0.30;;;11.20;99.90;;;;;;5063787;28;20212;-85
2021/12/30 00:30:54;;;;;;;0.20;0.20;;;11.30;99.90;;;;;;5064402;28;20181;-84
2021/12/30 00:33:22;;;;;;;0.20;0.20;;;11.40;99.90;;;;;;5066352;28;20274;-84
2021/12/30 00:35:48;;;;;;;0.30;0.30;;;11.40;99.90;;;;;;5066899;28;20734;-85
2021/12/30 00:38:14;;;;;;;2.87;0.30;;;11.50;99.90;;;;;;5063645;28;20184;-84
2021/12/30 00:40:40;;;;;;;0.10;0.10;;;11.50;99.90;;;;;;5065771;28;20196;-85
2021/12/30 00:43:06;;;;;;;0.50;0.50;;;11.60;99.90;;;;;;5063805;28;20208;-84
2021/12/30 00:45:33;;;;;;;3.50;0.10;;;11.50;99.90;;;;;;5067640;28;20185;-85
2021/12/30 00:47:59;;;;;;;0.10;0.10;;;11.50;99.90;;;;;;5063596;28;20205;-85
2021/12/30 00:50:26;;;;;;;0.20;0.20;;;11.40;99.90;;;;;;5065486;28;20208;-85
2021/12/30 00:52:52;;;;;;;0.10;0.10;;;11.40;99.90;;;;;;5060268;28;20294;-85
2021/12/30 00:55:17;;;;;;;0.10;0.10;;;11.30;99.90;;;;;;5064092;28;20181;-84
2021/12/30 00:57:43;;;;;;;0.10;0.10;;;11.30;99.90;;;;;;5065561;28;20692;-85
2021/12/30 01:00:14;;;;;;;0.10;0.10;;;11.30;99.90;;;;;;5066861;28;20207;-85
2021/12/30 01:02:41;;;;;;;0.10;0.10;;;11.30;99.90;;;;;;5066506;28;20223;-85
2021/12/30 01:05:07;;;;;;;0.00;0.00;;;11.40;99.90;;;;;;5062573;28;20183;-83
2021/12/30 01:07:33;;;;;;;0.77;0.20;;;11.40;99.90;;;;;;5058814;28;20288;-85
2021/12/30 01:09:59;;;;;;;0.10;0.10;;;11.40;99.90;;;;;;5066808;28;20748;-85
2021/12/30 01:12:25;;;;;;;0.10;0.10;;;11.40;99.90;;;;;;5065106;28;20285;-84
2021/12/30 01:14:52;;;;;;;0.10;0.10;;;11.40;99.90;;;;;;5062630;28;20201;-84
2021/12/30 01:17:25;;;;;;;1.60;0.20;;;11.30;99.90;;;;;;5064505;28;20187;-85
2021/12/30 01:19:51;;;;;;;0.23;0.23;;;11.40;99.90;;;;;;5061304;28;20188;-84
2021/12/30 01:22:22;;;;;;;0.87;0.87;;;11.30;99.90;;;;;;5064274;28;20201;-84
2021/12/30 01:24:48;;;;;;;0.93;0.50;;;11.30;99.90;;;;;;5064677;28;20192;-85
2021/12/30 01:27:15;;;;;;;0.20;0.10;;;11.30;99.90;;;;;;5065640;28;20185;-84
2021/12/30 01:29:40;;;;;;;0.30;0.30;;;11.20;99.90;;;;;;5065425;28;20212;-84
2021/12/30 01:32:06;;;;;;;0.10;0.10;;;11.20;99.90;;;;;;5058270;28;20233;-85
2021/12/30 01:34:33;;;;;;;0.10;0.10;;;11.20;99.90;;;;;;5064173;28;20238;-84
2021/12/30 01:37:01;;;;;;;1.07;0.40;;;11.20;99.90;;;;;;5064054;28;20189;-84
2021/12/30 01:39:27;;;;;;;0.10;0.10;;;11.20;99.90;;;;;;5064710;28;20195;-84
2021/12/30 01:41:53;;;;;;;0.20;0.20;;;11.20;99.90;;;;;;5060549;28;20232;-84
2021/12/30 01:44:19;;;;;;;0.10;0.10;;;11.20;99.90;;;;;;5064911;28;20220;-85
2021/12/30 01:46:47;;;;;;;0.10;0.10;;;11.20;99.90;;;;;;5064419;28;20184;-85
2021/12/30 01:49:14;;;;;;;0.10;0.10;;;11.20;99.90;;;;;;5064236;28;20681;-84
2021/12/30 01:51:41;;;;;;;0.20;0.20;;;11.30;99.90;;;;;;5064070;28;20205;-85
2021/12/30 01:54:07;;;;;;;0.23;0.20;;;11.30;99.90;;;;;;5063826;28;20577;-84
2021/12/30 01:56:33;;;;;;;0.20;0.20;;;11.20;99.90;;;;;;5065054;28;20181;-85
2021/12/30 01:58:59;;;;;;;0.10;0.10;;;11.30;99.90;;;;;;5062972;28;20200;-85
2021/12/30 02:01:25;;;;;;;1.67;0.37;;;11.30;99.90;;;;;;5056806;28;20287;-85
2021/12/30 02:03:51;;;;;;;0.30;0.30;;;11.20;99.90;;;;;;5066159;28;20196;-84
2021/12/30 02:06:17;;;;;;;0.30;0.30;;;11.30;99.90;;;;;;5064261;28;20189;-85
2021/12/30 02:08:42;;;;;;;0.30;0.30;;;11.30;99.90;;;;;;5062213;28;21049;-85
2021/12/30 02:11:08;;;;;;;0.10;0.10;;;11.40;99.90;;;;;;5063557;28;20181;-85
2021/12/30 02:13:34;;;;;;;0.30;0.30;;;11.30;99.90;;;;;;5058729;28;20214;-84
2021/12/30 02:16:02;;;;;;;0.40;0.30;;;11.30;99.90;;;;;;5062672;28;20187;-84
2021/12/30 02:18:32;;;;;;;0.13;0.13;;;11.30;99.90;;;;;;5060691;28;20195;-85
2021/12/30 02:21:02;;;;;;;0.30;0.30;;;11.20;99.90;;;;;;5057969;28;20216;-85
2021/12/30 02:23:33;;;;;;;0.13;0.13;;;11.30;99.90;;;;;;5063609;28;20212;-85
2021/12/30 02:26:01;;;;;;;0.20;0.20;;;11.20;99.90;;;;;;5063831;28;20181;-85
2021/12/30 02:28:30;;;;;;;1.00;0.63;;;11.10;99.90;;;;;;5063545;28;20210;-84
2021/12/30 02:30:58;;;;;;;0.10;0.10;;;11.10;99.90;;;;;;5060094;28;20551;-85
2021/12/30 02:33:24;;;;;;;0.20;0.20;;;11.00;99.90;;;;;;5064636;28;20250;-85
2021/12/30 02:35:50;;;;;;;0.10;0.10;;;11.00;99.90;;;;;;5065248;28;20485;-83
2021/12/30 02:38:17;;;;;;;0.10;0.10;;;11.00;99.90;;;;;;5063166;28;20200;-85
2021/12/30 02:40:45;;;;;;;0.10;0.10;;;11.00;99.90;;;;;;5061821;28;20189;-85
2021/12/30 02:43:15;;;;;;;0.10;0.10;;;10.90;99.90;;;;;;5063627;28;20208;-85
2021/12/30 02:45:42;;;;;;;0.27;0.27;;;11.00;99.90;;;;;;5063814;28;20183;-85
2021/12/30 02:48:19;;;;;;;0.10;0.10;;;11.00;99.90;;;;;;5061646;28;20212;-84
2021/12/30 02:50:46;;;;;;;0.10;0.10;;;11.20;99.90;;;;;;5061032;28;20173;-85
2021/12/30 02:53:13;;;;;;;0.10;0.10;;;11.20;99.90;;;;;;5064303;28;20334;-85
2021/12/30 02:55:40;;;;;;;0.10;0.10;;;11.30;99.90;;;;;;5063532;28;20185;-85
2021/12/30 02:58:05;;;;;;;0.40;0.30;;;11.40;99.90;;;;;;5063925;28;20198;-84
2021/12/30 03:00:32;;;;;;;0.10;0.10;;;11.40;99.90;;;;;;5062854;28;20232;-85
2021/12/30 03:02:58;;;;;;;7.00;0.20;;;11.50;99.90;;;;;;5062941;28;20307;-84
2021/12/30 03:05:24;;;;;;;0.10;0.10;;;11.60;99.90;;;;;;5063843;28;20238;-85
2021/12/30 03:07:51;;;;;;;0.10;0.10;;;11.60;99.90;;;;;;5061019;28;20286;-84
2021/12/30 03:10:19;;;;;;;1.97;0.33;;;11.60;99.90;;;;;;5061171;28;20215;-84
2021/12/30 03:12:46;;;;;;;0.10;0.10;;;11.70;99.90;;;;;;5063809;28;20201;-84
2021/12/30 03:15:13;;;;;;;0.73;0.20;;;11.70;99.90;;;;;;5064762;28;20181;-84
2021/12/30 03:17:39;;;;;;;2.10;0.10;;;11.70;99.90;;;;;;5065326;28;20184;-84
2021/12/30 03:20:09;;;;;;;0.20;0.20;;;11.60;99.90;;;;;;5066819;28;20598;-84
2021/12/30 03:22:37;;;;;;;0.10;0.10;;;11.60;99.90;;;;;;5066806;28;20571;-84
2021/12/30 03:25:04;;;;;;;0.10;0.10;;;11.60;99.90;;;;;;5068788;28;20662;-84
2021/12/30 03:27:30;;;;;;;0.20;0.20;;;11.60;99.90;;;;;;5068472;28;20203;-85
2021/12/30 03:29:55;;;;;;;0.10;0.10;;;11.60;99.90;;;;;;5067957;28;20177;-84
2021/12/30 03:32:21;;;;;;;0.10;0.10;;;11.50;99.90;;;;;;5069089;28;20728;-84
2021/12/30 03:34:46;;;;;;;0.10;0.10;;;11.50;99.90;;;;;;5066167;28;20176;-84
2021/12/30 03:37:12;;;;;;;0.30;0.30;;;11.30;99.90;;;;;;5062317;28;20188;-85
2021/12/30 03:39:38;;;;;;;0.27;0.27;;;11.20;99.90;;;;;;5067857;28;20181;-84
2021/12/30 03:42:04;;;;;;;0.10;0.10;;;11.30;99.90;;;;;;5066976;28;20208;-84
2021/12/30 03:44:29;;;;;;;0.10;0.10;;;11.30;99.90;;;;;;5067651;28;20546;-85
2021/12/30 03:46:55;;;;;;;0.07;0.07;;;11.40;99.90;;;;;;5068153;28;20191;-84
2021/12/30 03:49:21;;;;;;;0.10;0.10;;;11.40;99.90;;;;;;5067421;28;20250;-85
2021/12/30 03:51:46;;;;;;;0.20;0.20;;;11.40;99.90;;;;;;5066019;28;20205;-85
2021/12/30 03:54:12;;;;;;;0.13;0.13;;;11.40;99.90;;;;;;5068699;28;20216;-84
2021/12/30 03:56:37;;;;;;;0.07;0.07;;;11.40;99.90;;;;;;5064708;28;20174;-84
2021/12/30 03:59:04;;;;;;;0.20;0.20;;;11.40;99.90;;;;;;5064328;28;20223;-84
2021/12/30 04:01:29;;;;;;;0.17;0.17;;;11.50;99.90;;;;;;5069074;28;20185;-84
2021/12/30 04:03:55;;;;;;;0.10;0.10;;;11.50;99.90;;;;;;5066065;28;20191;-85
2021/12/30 04:06:21;;;;;;;0.10;0.10;;;11.50;99.90;;;;;;5064456;28;20193;-85
2021/12/30 04:08:47;;;;;;;0.20;0.20;;;11.50;99.90;;;;;;5063661;28;20906;-84
2021/12/30 04:11:13;;;;;;;0.20;0.20;;;11.60;99.90;;;;;;5065502;28;20227;-84
2021/12/30 04:13:38;;;;;;;0.17;0.17;;;11.60;99.90;;;;;;5063998;28;20208;-85
2021/12/30 04:16:05;;;;;;;0.30;0.30;;;11.70;99.90;;;;;;5061078;28;20753;-84
2021/12/30 04:18:31;;;;;;;0.20;0.20;;;11.70;99.90;;;;;;5066575;28;20192;-84
2021/12/30 04:20:57;;;;;;;1.07;0.30;;;11.70;99.90;;;;;;5068369;28;20187;-84
2021/12/30 04:23:22;;;;;;;0.10;0.10;;;11.70;99.90;;;;;;5060927;28;20207;-85
2021/12/30 04:25:48;;;;;;;0.30;0.30;;;11.80;99.90;;;;;;5059951;28;20245;-84
2021/12/30 04:28:13;;;;;;;0.20;0.20;;;11.70;99.90;;;;;;5065040;28;20213;-84
2021/12/30 04:30:39;;;;;;;0.10;0.10;;;11.80;99.90;;;;;;5066492;28;20275;-84
2021/12/30 04:33:05;;;;;;;0.17;0.17;;;11.70;99.90;;;;;;5063898;28;20201;-85
2021/12/30 04:35:32;;;;;;;0.30;0.30;;;11.70;99.90;;;;;;5066195;28;20181;-85
2021/12/30 04:37:57;;;;;;;0.20;0.20;;;11.70;99.90;;;;;;5065485;28;20328;-84
2021/12/30 04:40:23;;;;;;;1.80;0.40;;;11.80;99.90;;;;;;5065880;28;20189;-84
2021/12/30 04:42:48;;;;;;;0.50;0.30;;;11.70;99.90;;;;;;5066095;28;20201;-85
2021/12/30 04:45:15;;;;;;;0.20;0.20;;;11.70;99.90;;;;;;5066656;28;20189;-85
2021/12/30 04:47:41;;;;;;;0.20;0.20;;;11.80;99.90;;;;;;5062328;28;20207;-84
2021/12/30 04:50:11;;;;;;;0.37;0.20;;;11.70;99.90;;;;;;5066042;28;20549;-84
2021/12/30 04:52:39;;;;;;;0.10;0.10;;;11.70;99.90;;;;;;5063657;28;20197;-85
2021/12/30 04:55:05;;;;;;;0.20;0.10;;;11.80;99.90;;;;;;5061851;28;20534;-84
2021/12/30 04:57:31;;;;;;;0.47;0.47;;;11.70;99.90;;;;;;5060197;28;21109;-85
2021/12/30 04:59:56;;;;;;;0.13;0.13;;;11.40;99.90;;;;;;5066467;28;20207;-85
2021/12/30 05:02:26;;;;;;;0.30;0.30;;;11.30;99.90;;;;;;5065821;28;20199;-85
2021/12/30 05:04:51;;;;;;;0.30;0.30;;;11.10;99.90;;;;;;5066178;28;20192;-84
2021/12/30 05:07:17;;;;;;;0.17;0.17;;;11.00;99.90;;;;;;5062883;28;20177;-84
2021/12/30 05:09:42;;;;;;;0.13;0.13;;;10.80;99.90;;;;;;5066085;28;20205;-84
2021/12/30 05:12:08;;;;;;;0.10;0.10;;;10.70;99.90;;;;;;5064802;28;20212;-85
2021/12/30 05:14:34;;;;;;;0.20;0.20;;;10.90;99.90;;;;;;5059969;28;20174;-84
2021/12/30 05:17:03;;;;;;;0.20;0.20;;;11.10;99.90;;;;;;5062860;28;20210;-84
2021/12/30 05:19:30;;;;;;;0.13;0.13;;;11.20;99.90;;;;;;5064409;28;20180;-84
2021/12/30 05:21:56;;;;;;;0.20;0.20;;;11.30;99.90;;;;;;5060426;28;20240;-84
2021/12/30 05:24:22;;;;;;;5.77;0.30;;;11.40;99.90;;;;;;5063842;28;20272;-83
2021/12/30 05:26:47;;;;;;;0.77;0.50;;;11.40;99.90;;;;;;5064354;28;20705;-83
2021/12/30 05:29:15;;;;;;;0.10;0.10;;;11.50;99.90;;;;;;5064365;28;20299;-84
2021/12/30 05:31:41;;;;;;;0.10;0.10;;;11.50;99.90;;;;;;5064610;28;20200;-84
2021/12/30 05:34:06;;;;;;;0.10;0.10;;;11.40;99.90;;;;;;5061757;28;20195;-84
2021/12/30 05:36:32;;;;;;;0.37;0.37;;;11.50;99.90;;;;;;5066039;28;20326;-85
2021/12/30 05:38:57;;;;;;;0.40;0.40;;;11.60;99.90;;;;;;5064623;28;20204;-84
2021/12/30 05:41:25;;;;;;;0.20;0.20;;;11.60;99.90;;;;;;5067152;28;20224;-84
2021/12/30 05:43:51;;;;;;;0.40;0.40;;;11.70;99.90;;;;;;5059468;28;20192;-84
2021/12/30 05:46:17;;;;;;;0.43;0.43;;;11.70;99.90;;;;;;5067590;28;20269;-84
2021/12/30 05:48:42;;;;;;;0.50;0.50;;;11.70;99.90;;;;;;5061116;28;20257;-84
2021/12/30 05:51:08;;;;;;;0.17;0.17;;;11.80;99.90;;;;;;5065364;28;20553;-84
2021/12/30 05:53:33;;;;;;;0.10;0.10;;;11.80;99.90;;;;;;5066392;28;20214;-83
2021/12/30 05:55:59;;;;;;;0.20;0.20;;;11.80;99.90;;;;;;5065228;28;20234;-83
2021/12/30 05:58:25;;;;;;;0.10;0.10;;;11.80;99.90;;;;;;5064559;28;20204;-84
2021/12/30 06:00:50;;;;;;;0.10;0.10;;;11.90;99.90;;;;;;5066715;28;20193;-83
2021/12/30 06:03:19;;;;;;;0.10;0.10;;;11.90;99.90;;;;;;5065231;28;20249;-83
2021/12/30 06:05:46;;;;;;;0.33;0.17;;;11.80;99.90;;;;;;5066449;28;20212;-83
2021/12/30 06:08:11;;;;;;;0.63;0.10;;;11.90;99.90;;;;;;5061906;28;20209;-83
2021/12/30 06:10:37;;;;;;;0.10;0.10;;;11.90;99.90;;;;;;5068229;28;20355;-82
2021/12/30 06:13:03;;;;;;;0.10;0.10;;;11.90;99.90;;;;;;5062742;28;20700;-82
2021/12/30 06:15:28;;;;;;;1.27;0.37;;;11.70;99.90;;;;;;5063118;28;20185;-82
2021/12/30 06:17:54;;;;;;;0.70;0.60;;;11.40;99.90;;;;;;5064168;28;20680;-82
2021/12/30 06:20:19;;;;;;;0.23;0.23;;;11.50;99.90;;;;;;5062870;28;21264;-82
2021/12/30 06:22:46;;;;;;;0.10;0.10;;;11.50;99.90;;;;;;5066792;28;20231;-82
2021/12/30 06:25:12;;;;;;;1.70;0.17;;;11.50;99.90;;;;;;5063572;28;20188;-83
2021/12/30 06:27:38;;;;;;;0.10;0.10;;;11.60;99.90;;;;;;5063643;28;20772;-83
2021/12/30 06:30:05;;;;;;;0.33;0.33;;;11.60;99.90;;;;;;5055342;28;20189;-83
2021/12/30 06:32:30;;;;;;;0.87;0.87;;;11.60;99.90;;;;;;5063030;28;20207;-84
2021/12/30 06:34:56;;;;;;;0.20;0.20;;;11.60;99.90;;;;;;5063720;28;20186;-84
2021/12/30 06:37:22;;;;;;;0.30;0.30;;;11.50;99.90;;;;;;5066385;28;20188;-84
2021/12/30 06:39:47;;;;;;;0.50;0.50;;;11.50;99.90;;;;;;5070626;28;20185;-83
2021/12/30 06:42:13;;;;;;;0.47;0.20;;;11.50;99.90;;;;;;5071905;28;20207;-84
2021/12/30 06:44:38;;;;;;;0.10;0.10;;;11.60;99.90;;;;;;5072763;28;20444;-84
2021/12/30 06:47:05;;;;;;;0.30;0.30;;;11.50;99.90;;;;;;5073691;28;20208;-84
2021/12/30 06:49:36;;;;;;;0.37;0.37;;;11.60;99.90;;;;;;5078258;28;20213;-84
2021/12/30 06:52:07;;;;;;;0.20;0.20;;;11.70;99.90;;;;;;5062767;28;20196;-83
2021/12/30 06:54:32;;;;;;;2.17;2.00;;;11.70;99.90;;;;;;5063994;28;20188;-84
2021/12/30 06:57:00;;;;;;;3.40;0.40;;;11.70;99.90;;;;;;5064883;28;20184;-84
2021/12/30 06:59:27;;;;;;;0.13;0.13;;;11.80;99.90;;;;;;5060887;28;20209;-84
2021/12/30 07:01:52;;;;;;;0.10;0.10;;;11.90;99.90;;;;;;5064108;28;20209;-83
2021/12/30 07:04:18;;;;;;;0.10;0.10;;;12.00;99.90;;;;;;5059345;28;20355;-84
2021/12/30 07:06:43;;;;;;;0.20;0.20;;;12.10;99.90;;;;;;5064809;28;20188;-83
2021/12/30 07:09:09;;;;;;;0.53;0.53;;;12.10;99.90;;;;;;5064556;28;20204;-83
2021/12/30 07:11:34;;;;;;;0.10;0.10;;;12.10;99.90;;;;;;5064242;28;20204;-83
2021/12/30 07:14:00;;;;;;;0.30;0.30;;;12.20;99.90;;;;;;5064587;28;20173;-84
2021/12/30 07:16:25;;;;;;;0.23;0.23;;;12.10;99.90;;;;;;5064232;28;20213;-83
2021/12/30 07:18:51;;;;;;;2.53;0.20;;;12.10;99.90;;;;;;5062084;28;20230;-84
2021/12/30 07:21:17;;;;;;;0.20;0.20;;;12.10;99.90;;;;;;5055972;28;20195;-82
2021/12/30 07:23:42;;;;;;;0.13;0.10;;;12.20;99.90;;;;;;5064816;28;20204;-82
2021/12/30 07:26:08;;;;;;;0.20;0.20;;;12.10;99.90;;;;;;5054150;28;20195;-82
2021/12/30 07:28:33;;;;;;;0.03;0.03;;;12.20;99.90;;;;;;5057481;28;20219;-82
2021/12/30 07:30:59;;;;;;;0.17;0.17;;;12.30;99.90;;;;;;5062570;28;20191;-82
2021/12/30 07:33:24;;;;;;;0.13;0.13;;;12.30;99.90;;;;;;5061549;28;20208;-82
2021/12/30 07:35:50;;;;;;;0.10;0.10;;;12.40;99.90;;;;;;5080088;28;20193;-81
2021/12/30 07:38:15;;;;;;;0.10;0.10;;;12.50;99.90;;;;;;5062852;28;20188;-82
2021/12/30 07:40:41;;;;;;;0.20;0.20;;;12.50;99.90;;;;;;5061408;28;20559;-81
2021/12/30 07:43:06;;;;;;;0.20;0.20;;;12.60;99.90;;;;;;5057726;28;20207;-82
2021/12/30 07:45:32;;;;;;;0.20;0.20;;;12.60;99.90;;;;;;5068263;28;20185;-82
2021/12/30 07:47:58;;;;;;;0.77;0.30;;;12.60;99.90;;;;;;5061018;28;20758;-82
2021/12/30 07:50:23;;;;;;;0.10;0.10;;;12.70;99.90;;;;;;5064839;28;20238;-82
2021/12/30 07:52:50;;;;;;;0.10;0.10;;;12.70;99.90;;;;;;5063061;28;20374;-81
2021/12/30 07:55:15;;;;;;;0.77;0.20;;;12.70;99.90;;;;;;5066310;28;20188;-82
2021/12/30 07:57:42;;;;;;;0.20;0.20;;;12.80;99.90;;;;;;5068338;28;20618;-82
2021/12/30 08:00:12;;;;;;;5.87;0.40;;;12.80;99.90;;;;;;5068203;28;20630;-82
2021/12/30 08:02:38;;;;;;;0.10;0.10;;;12.80;99.90;;;;;;5067402;28;20201;-81
2021/12/30 08:05:04;;;;;;;0.30;0.30;;;12.80;99.90;;;;;;5068262;28;20280;-82
2021/12/30 08:07:30;;;;;;;0.23;0.23;;;12.90;99.90;;;;;;5068593;28;20187;-82
2021/12/30 08:09:55;;;;;;;0.10;0.10;;;12.90;99.90;;;;;;5065728;28;20182;-81
2021/12/30 08:12:21;;;;;;;0.10;0.10;;;12.90;99.90;;;;;;5061078;28;20193;-82
2021/12/30 08:14:46;;;;;;;0.20;0.20;;;13.00;99.90;;;;;;5065747;28;20177;-80
2021/12/30 08:17:12;;;;;;;0.10;0.10;;;13.00;99.90;;;;;;5067311;28;20232;-82
2021/12/30 08:19:38;;;;;;;4.50;0.27;;;13.00;99.90;;;;;;5067982;28;20262;-81
2021/12/30 08:22:04;;;;;;;0.20;0.20;;;13.00;99.90;;;;;;5069075;28;20764;-81
2021/12/30 08:24:29;;;;;;;0.83;0.30;;;13.10;99.90;;;;;;5070854;28;20253;-80
2021/12/30 08:26:58;;;;;;;0.20;0.20;;;13.10;99.90;;;;;;5070161;28;20288;-81
2021/12/30 08:29:24;;;;;;;0.00;0.00;;;13.10;99.90;;;;;;5069425;28;20211;-81
2021/12/30 08:31:49;;;;;;;0.37;0.37;;;13.20;99.90;;;;;;5069659;28;20268;-81
2021/12/30 08:34:15;;;;;;;0.20;0.20;;;13.20;99.90;;;;;;5065854;28;20174;-81
2021/12/30 08:36:41;;;;;;;0.47;0.20;;;13.20;99.90;;;;;;5064588;28;20177;-81
2021/12/30 08:39:06;;;;;;;0.20;0.20;;;13.30;99.90;;;;;;5070011;28;20550;-81
2021/12/30 08:41:32;;;;;;;0.20;0.10;;;13.30;99.90;;;;;;5064872;28;20682;-81
2021/12/30 08:43:58;;;;;;;0.10;0.10;;;13.40;99.90;;;;;;5066081;28;20189;-81
2021/12/30 08:46:23;;;;;;;0.10;0.10;;;13.40;99.90;;;;;;5070545;28;20208;-81
2021/12/30 08:48:49;;;;;;;1.40;0.30;;;13.40;99.90;;;;;;5066584;28;20202;-81
2021/12/30 08:51:14;;;;;;;0.87;0.20;;;13.40;99.90;;;;;;5069689;28;20177;-81
2021/12/30 08:53:41;;;;;;;0.10;0.10;;;13.50;99.90;;;;;;5070550;28;20208;-80
2021/12/30 08:56:11;;;;;;;0.20;0.20;;;13.60;99.90;;;;;;5065622;28;20192;-81
2021/12/30 08:58:38;;;;;;;0.30;0.30;;;13.60;99.90;;;;;;5063462;28;20438;-81
2021/12/30 09:01:03;;;;;;;0.03;0.03;;;13.60;99.90;;;;;;5064570;28;20211;-82
2021/12/30 09:03:29;;;;;;;0.10;0.10;;;13.70;99.90;;;;;;5058292;28;20217;-82
2021/12/30 09:05:55;;;;;;;0.20;0.20;;;13.70;99.90;;;;;;5062469;28;20186;-82
2021/12/30 09:08:20;;;;;;;0.67;0.43;;;13.70;99.90;;;;;;5062862;28;20227;-82
2021/12/30 09:10:49;;;;;;;0.70;0.20;;;13.70;99.90;;;;;;5063555;28;20188;-82
2021/12/30 09:13:15;;;;;;;0.30;0.30;;;13.80;99.90;;;;;;5062903;28;20232;-82
2021/12/30 09:15:41;;;;;;;0.33;0.33;;;13.80;99.90;;;;;;5063430;28;20179;-82
2021/12/30 09:18:08;;;;;;;0.20;0.20;;;13.80;99.90;;;;;;5066232;28;20175;-82
2021/12/30 09:20:35;;;;;;;0.60;0.60;;;13.80;99.90;;;;;;5067653;28;20251;-82
2021/12/30 09:23:03;;;;;;;0.30;0.27;;;13.80;99.90;;;;;;5066525;28;20624;-82
2021/12/30 09:25:29;;;;;;;0.20;0.20;;;13.80;99.90;;;;;;5066001;28;20254;-82
2021/12/30 09:27:56;;;;;;;0.17;0.17;;;13.80;99.90;;;;;;5065831;28;20210;-81
2021/12/30 09:30:25;;;;;;;0.10;0.10;;;13.90;99.90;;;;;;5057525;28;20181;-81
2021/12/30 09:32:53;;;;;;;1.50;0.73;;;13.90;99.90;;;;;;5048630;28;21316;-81
2021/12/30 09:35:19;;;;;;;0.20;0.20;;;14.00;99.90;;;;;;5053165;28;20280;-82
2021/12/30 09:37:45;;;;;;;0.20;0.20;;;14.00;99.90;;;;;;5065669;28;20260;-82
2021/12/30 09:40:13;;;;;;;0.10;0.10;;;14.00;99.90;;;;;;5065434;28;20201;-82
2021/12/30 09:42:45;;;;;;;0.20;0.20;;;14.00;99.90;;;;;;5065592;28;21143;-82
2021/12/30 09:45:11;;;;;;;0.10;0.10;;;14.10;99.90;;;;;;5065152;28;20184;-82
2021/12/30 09:47:52;;;;;;;0.20;0.20;;;14.10;99.90;;;;;;5062426;28;20183;-82
2021/12/30 09:50:20;;;;;;;0.27;0.27;;;14.20;99.90;;;;;;5064488;28;20277;-82
2021/12/30 09:52:45;;;;;;;3.00;0.20;;;14.20;99.90;;;;;;5065000;28;20206;-82
2021/12/30 09:55:11;;;;;;;0.10;0.10;;;14.30;99.90;;;;;;5067407;28;20185;-82
2021/12/30 09:57:37;;;;;;;0.20;0.20;;;14.40;99.90;;;;;;5061340;28;20745;-82
2021/12/30 10:00:10;;;;;;;0.20;0.20;;;14.50;99.90;;;;;;5064317;28;20230;-81
2021/12/30 10:02:35;;;;;;;0.17;0.17;;;14.70;99.90;;;;;;5062975;28;20206;-82
2021/12/30 10:05:11;;;;;;;0.50;0.50;;;14.70;99.90;;;;;;5064149;28;20317;-82
2021/12/30 10:07:39;;;;;;;0.10;0.10;;;14.80;99.90;;;;;;5063607;28;20378;-83
2021/12/30 10:10:25;;;;;;;0.20;0.20;;;14.80;99.90;;;;;;5065679;28;20188;-82
2021/12/30 10:12:51;;;;;;;1.43;0.20;;;14.80;99.90;;;;;;5061548;28;20209;-82
2021/12/30 10:15:19;;;;;;;0.13;0.13;;;14.80;99.90;;;;;;5064368;28;20597;-82
2021/12/30 10:17:53;;;;;;;0.10;0.10;;;14.80;99.90;;;;;;5062360;28;20186;-81
2021/12/30 10:20:24;;;;;;;0.33;0.33;;;14.90;99.90;;;;;;5057225;28;20199;-81
2021/12/30 10:22:49;;;;;;;0.10;0.10;;;14.90;99.90;;;;;;5061466;28;20310;-81
2021/12/30 10:25:33;;;;;;;0.40;0.40;;;14.90;99.90;;;;;;5063292;28;20244;-81
2021/12/30 10:28:22;;;;;;;0.10;0.10;;;15.00;99.90;;;;;;5064390;28;20250;-81
2021/12/30 10:30:50;;;;;;;0.30;0.30;;;15.00;99.90;;;;;;5061519;28;20195;-81
2021/12/30 10:33:25;;;;;;;0.13;0.13;;;15.00;99.90;;;;;;5063968;28;20203;-82
2021/12/30 10:35:53;;;;;;;0.10;0.10;;;15.00;99.90;;;;;;5066690;28;20749;-81
2021/12/30 10:38:18;;;;;;;0.20;0.20;;;15.00;99.90;;;;;;5062031;28;20194;-82
2021/12/30 10:40:48;;;;;;;0.30;0.30;;;15.10;99.90;;;;;;5064832;28;20276;-81
2021/12/30 10:43:28;;;;;;;0.10;0.10;;;15.10;99.90;;;;;;5064906;28;20266;-84
2021/12/30 10:46:10;;;;;;;0.10;0.10;;;15.10;99.90;;;;;;5061673;28;20712;-82
2021/12/30 10:48:53;;;;;;;0.53;0.40;;;15.20;99.90;;;;;;5062657;28;20210;-83
2021/12/30 10:51:24;;;;;;;0.30;0.30;;;15.30;99.90;;;;;;5065249;28;20238;-83
2021/12/30 10:53:51;;;;;;;0.10;0.10;;;15.30;99.90;;;;;;5062598;28;20218;-83
2021/12/30 10:56:29;;;;;;;0.10;0.10;;;15.30;99.90;;;;;;5063109;28;20190;-83
2021/12/30 10:59:07;;;;;;;0.10;0.10;;;15.30;99.90;;;;;;5062548;28;20707;-84
2021/12/30 11:01:40;;;;;;;0.10;0.10;;;15.40;99.90;;;;;;5060849;28;20685;-84
2021/12/30 11:04:06;;;;;;;0.10;0.10;;;15.50;99.90;;;;;;5062819;28;20262;-83
2021/12/30 11:06:32;;;;;;;0.10;0.10;;;15.50;99.90;;;;;;5058454;28;20665;-83
2021/12/30 11:09:08;;;;;;;0.27;0.27;;;15.50;99.90;;;;;;5062607;28;20207;-83
2021/12/30 11:11:35;;;;;;;0.40;0.37;;;15.60;99.90;;;;;;5060583;28;20247;-83
2021/12/30 11:14:03;;;;;;;0.10;0.10;;;15.60;99.90;;;;;;5063469;28;20186;-83
2021/12/30 11:16:29;;;;;;;0.20;0.20;;;15.70;99.90;;;;;;5061270;28;20558;-84
2021/12/30 11:18:56;;;;;;;0.10;0.10;;;15.70;99.90;;;;;;5062905;28;20720;-84
2021/12/30 11:21:35;;;;;;;0.20;0.20;;;15.80;99.90;;;;;;5058792;28;21005;-84
2021/12/30 11:24:02;;;;;;;0.10;0.10;;;15.90;99.90;;;;;;5062352;28;20187;-83
2021/12/30 11:26:28;;;;;;;0.10;0.10;;;16.10;99.90;;;;;;5059003;28;20265;-84
2021/12/30 11:28:55;;;;;;;0.10;0.10;;;16.30;99.90;;;;;;5057958;28;20206;-83
2021/12/30 11:31:20;;;;;;;0.10;0.10;;;16.40;99.90;;;;;;5064596;28;20200;-84
2021/12/30 11:33:47;;;;;;;0.20;0.20;;;16.50;99.90;;;;;;5059786;28;20211;-84
2021/12/30 11:36:12;;;;;;;0.10;0.10;;;16.50;99.90;;;;;;5062754;28;20197;-84
2021/12/30 11:38:38;;;;;;;0.10;0.10;;;16.60;99.90;;;;;;5062071;28;20590;-84
2021/12/30 11:41:04;;;;;;;0.10;0.10;;;16.60;99.90;;;;;;5065893;28;20220;-83
2021/12/30 11:43:45;;;;;;;0.10;0.10;;;16.60;99.90;;;;;;5069043;28;20205;-83
2021/12/30 11:46:46;;;;;;;0.10;0.10;;;16.60;99.90;;;;;;5065144;28;20189;-83
2021/12/30 11:49:15;;;;;;;0.10;0.10;;;16.60;99.90;;;;;;5061084;28;20740;-83
2021/12/30 11:51:42;;;;;;;0.10;0.10;;;16.50;99.90;;;;;;5065749;28;20204;-83
2021/12/30 11:54:41;;;;;;;0.17;0.17;;;16.50;99.90;;;;;;5065336;28;20231;-84
2021/12/30 11:57:35;;;;;;;0.20;0.20;;;16.40;99.90;;;;;;5064903;28;20169;-83
2021/12/30 12:00:33;;;;;;;0.10;0.10;;;16.30;99.90;;;;;;5067725;28;20282;-83
2021/12/30 12:03:02;;;;;;;0.23;0.23;;;16.30;99.90;;;;;;5061158;28;20295;-84
2021/12/30 12:05:43;;;;;;;0.10;0.10;;;16.30;99.90;;;;;;5066560;28;20195;-84
2021/12/30 12:08:14;;;;;;;0.10;0.10;;;16.20;99.90;;;;;;5067249;28;20246;-83
2021/12/30 12:10:40;;;;;;;0.20;0.20;;;16.20;99.90;;;;;;5062701;28;20188;-84
2021/12/30 12:13:32;;;;;;;0.10;0.10;;;16.20;99.90;;;;;;5067806;28;20205;-84
2021/12/30 12:15:58;;;;;;;0.73;0.40;;;16.10;99.90;;;;;;5069003;28;20188;-83
2021/12/30 12:18:24;;;;;;;0.10;0.10;;;16.20;99.90;;;;;;5067191;28;20192;-83
2021/12/30 12:20:52;;;;;;;0.53;0.40;;;16.10;99.90;;;;;;5066785;28;20218;-83
2021/12/30 12:23:45;;;;;;;0.20;0.20;;;16.10;99.90;;;;;;5060004;28;20212;-84
2021/12/30 12:26:20;;;;;;;0.10;0.10;;;16.00;99.90;;;;;;5062144;28;20211;-84
2021/12/30 12:28:47;;;;;;;0.30;0.30;;;15.90;99.90;;;;;;5061375;28;20207;-84
2021/12/30 12:31:13;;;;;;;0.10;0.10;;;16.00;99.90;;;;;;5064008;28;20189;-84
2021/12/30 12:33:41;;;;;;;0.10;0.10;;;16.10;99.90;;;;;;5059163;28;20204;-82
2021/12/30 12:36:18;;;;;;;0.30;0.30;;;16.30;99.90;;;;;;5068076;28;20258;-82
2021/12/30 12:38:53;;;;;;;0.40;0.40;;;16.50;99.90;;;;;;5067841;28;20195;-82
2021/12/30 12:41:29;;;;;;;0.10;0.10;;;16.50;99.90;;;;;;5066101;28;20202;-81
2021/12/30 12:43:57;;;;;;;0.10;0.10;;;16.70;99.90;;;;;;5064840;28;21334;-82
2021/12/30 12:46:46;;;;;;;0.10;0.10;;;16.90;99.90;;;;;;5065655;28;20223;-82
2021/12/30 12:49:13;;;;;;;0.47;0.47;;;17.30;99.90;;;;;;5062165;28;20231;-81
2021/12/30 12:51:52;;;;;;;0.30;0.20;;;17.30;99.90;;;;;;5059324;28;20177;-82